Time;durP1;ratioP1;P1;durP2;ratioP2;P2;SDS_P1;SDS_P2;PMS_P1;PMS_P2;Temp;Humidity;BMP_temperature;BMP_pressure;BME280_temperature;BME280_humidity;BME280_pressure;Samples;Min_cycle;Max_cycle;Signal;HPM_P1;HPM_P2
2022/01/20 00:00:49;;;;;;;16.92;2.97;;;4.60;99.90;;;;;;5009682;28;20049;-74
2022/01/20 00:03:20;;;;;;;16.70;3.53;;;4.60;99.90;;;;;;4996809;28;20072;-73
2022/01/20 00:27:32;;;;;;;18.47;3.87;;;4.20;99.90;;;;;;5028259;28;20053;-74
2022/01/20 00:32:36;;;;;;;13.13;2.40;;;4.10;99.90;;;;;;5026281;28;20119;-74
2022/01/20 00:37:32;;;;;;;16.23;3.53;;;4.20;99.90;;;;;;5011281;28;20168;-74
2022/01/20 00:39:58;;;;;;;;;;;4.20;99.90;;;;;;5027559;28;20056;-74
2022/01/20 00:42:25;;;;;;;13.23;2.63;;;4.20;99.90;;;;;;5011324;28;19960;-74
2022/01/20 00:44:50;;;;;;;13.43;2.97;;;4.20;99.90;;;;;;4994515;28;20065;-74
2022/01/20 00:47:18;;;;;;;18.20;3.17;;;4.20;99.90;;;;;;4995205;28;20119;-74
2022/01/20 00:49:44;;;;;;;15.30;2.90;;;4.10;99.90;;;;;;5025234;28;20389;-74
2022/01/20 00:52:11;;;;;;;16.53;3.20;;;4.10;99.90;;;;;;5010714;28;20143;-74
2022/01/20 00:54:37;;;;;;;13.37;2.90;;;4.10;99.90;;;;;;5027056;28;20092;-74
2022/01/20 00:57:03;;;;;;;14.63;2.33;;;4.10;99.90;;;;;;5024295;28;20045;-74
2022/01/20 00:59:30;;;;;;;15.67;2.37;;;4.00;99.90;;;;;;5026304;28;20038;-74
2022/01/20 01:01:58;;;;;;;16.07;2.70;;;4.00;99.90;;;;;;5026363;28;20575;-74
2022/01/20 01:04:25;;;;;;;14.33;2.73;;;4.00;99.90;;;;;;5027558;28;20045;-74
2022/01/20 01:07:24;;;;;;;20.50;2.83;;;4.00;99.90;;;;;;5010913;28;20049;-74
2022/01/20 01:09:49;;;;;;;14.40;2.33;;;4.10;99.90;;;;;;5014542;28;20140;-73
2022/01/20 01:12:24;;;;;;;12.90;2.23;;;4.10;99.90;;;;;;4994341;28;20136;-74
2022/01/20 01:14:52;;;;;;;13.80;3.00;;;4.10;99.90;;;;;;4997381;28;20133;-74
2022/01/20 01:20:12;;;;;;;14.17;2.70;;;4.10;99.90;;;;;;5027025;28;20092;-75
2022/01/20 01:22:38;;;;;;;12.90;2.90;;;4.10;99.90;;;;;;5010158;28;20492;-74
2022/01/20 01:25:04;;;;;;;13.33;2.70;;;4.10;99.90;;;;;;5010589;28;20099;-74
2022/01/20 01:27:34;;;;;;;14.93;2.53;;;4.10;99.90;;;;;;5027575;28;20034;-74
2022/01/20 01:32:48;;;;;;;19.37;3.20;;;4.10;99.90;;;;;;5010292;28;20128;-74
2022/01/20 01:35:19;;;;;;;17.13;2.67;;;4.20;99.90;;;;;;5041475;28;20053;-74
2022/01/20 01:40:34;;;;;;;14.77;2.70;;;4.20;99.90;;;;;;4983405;28;20153;-74
2022/01/20 01:43:11;;;;;;;14.40;2.30;;;4.20;99.90;;;;;;5026630;28;20057;-74
2022/01/20 01:45:40;;;;;;;15.03;2.40;;;4.30;99.90;;;;;;5012155;28;20045;-74
2022/01/20 01:48:07;;;;;;;12.50;2.10;;;4.30;99.90;;;;;;5008403;28;20551;-75
2022/01/20 01:50:33;;;;;;;10.70;1.80;;;4.40;99.90;;;;;;5010450;28;20044;-73
2022/01/20 01:53:04;;;;;;;10.63;1.83;;;4.40;99.90;;;;;;5042941;28;20507;-73
2022/01/20 01:55:31;;;;;;;12.87;2.07;;;4.30;99.90;;;;;;5027382;28;20042;-74
2022/01/20 01:57:57;;;;;;;12.40;2.23;;;4.40;99.90;;;;;;5026356;28;20049;-73
2022/01/20 02:00:23;;;;;;;9.97;1.57;;;4.30;99.90;;;;;;5025136;28;20037;-74
2022/01/20 02:02:49;;;;;;;12.77;2.03;;;4.30;99.90;;;;;;5009225;28;20524;-73
2022/01/20 02:05:16;;;;;;;10.10;1.37;;;4.20;99.90;;;;;;5026319;28;20038;-74
2022/01/20 02:19:10;;;;;;;12.17;2.33;;;3.90;99.90;;;;;;4971447;28;20696;-74
2022/01/20 02:21:45;;;;;;;16.43;2.60;;;3.90;99.90;;;;;;4978274;28;20068;-74
2022/01/20 02:24:11;;;;;;;16.00;2.63;;;3.90;99.90;;;;;;5026175;28;20049;-74
2022/01/20 02:26:37;;;;;;;17.93;2.50;;;3.90;99.90;;;;;;5009621;28;20068;-74
2022/01/20 02:29:02;;;;;;;12.67;2.63;;;3.90;99.90;;;;;;5009012;28;20038;-74
2022/01/20 02:31:28;;;;;;;13.17;2.17;;;4.00;99.90;;;;;;4993475;28;20465;-75
2022/01/20 02:33:57;;;;;;;16.20;2.37;;;4.10;99.90;;;;;;5011912;28;20044;-73
2022/01/20 02:36:23;;;;;;;14.17;2.40;;;4.20;99.90;;;;;;5012139;28;20041;-73
2022/01/20 02:38:57;;;;;;;11.37;2.33;;;4.10;99.90;;;;;;5026726;28;20476;-74
2022/01/20 02:46:52;;;;;;;13.97;2.27;;;4.20;99.90;;;;;;5022450;28;20498;-73
2022/01/20 02:49:18;;;;;;;11.50;1.97;;;4.20;99.90;;;;;;5024887;28;20124;-73
2022/01/20 02:51:53;;;;;;;12.93;2.27;;;4.30;99.90;;;;;;5028788;28;20186;-73
2022/01/20 02:54:19;;;;;;;12.77;2.37;;;4.30;99.90;;;;;;5012580;28;20048;-73
2022/01/20 02:56:45;;;;;;;12.60;2.53;;;4.30;99.90;;;;;;5029084;28;20037;-73
2022/01/20 02:59:11;;;;;;;15.67;2.80;;;4.20;99.90;;;;;;5010626;28;20098;-73
2022/01/20 03:01:38;;;;;;;15.83;2.53;;;4.10;99.90;;;;;;5011174;28;20079;-73
2022/01/20 03:04:04;;;;;;;20.93;4.20;;;4.10;99.90;;;;;;5031152;28;20052;-75
2022/01/20 03:06:30;;;;;;;17.30;3.57;;;4.10;99.90;;;;;;5027805;28;20045;-73
2022/01/20 03:08:56;;;;;;;18.50;3.10;;;4.10;99.90;;;;;;5010230;28;20044;-73
2022/01/20 03:11:22;;;;;;;19.97;3.30;;;4.00;99.90;;;;;;5030896;28;20037;-73
2022/01/20 03:13:47;;;;;;;14.10;2.53;;;4.00;99.90;;;;;;5017408;28;20037;-73
2022/01/20 03:16:13;;;;;;;15.90;3.40;;;3.90;99.90;;;;;;5033621;28;20606;-74
2022/01/20 03:18:39;;;;;;;18.70;3.13;;;3.90;99.90;;;;;;5015121;28;20423;-73
2022/01/20 03:21:05;;;;;;;19.23;3.30;;;3.90;99.90;;;;;;5000052;28;20101;-73
2022/01/20 03:23:31;;;;;;;17.53;3.63;;;3.90;99.90;;;;;;5032534;28;20048;-74
2022/01/20 03:25:59;;;;;;;20.53;3.87;;;3.90;99.90;;;;;;5014751;28;20120;-73
2022/01/20 03:28:25;;;;;;;20.73;3.17;;;3.90;99.90;;;;;;5032304;28;20037;-73
2022/01/20 03:30:51;;;;;;;19.93;4.17;;;3.90;99.90;;;;;;5032083;28;20527;-74
2022/01/20 03:33:17;;;;;;;24.50;3.77;;;3.90;99.90;;;;;;5030062;28;20049;-73
2022/01/20 03:35:43;;;;;;;23.97;4.57;;;3.90;99.90;;;;;;5032127;28;20402;-74
2022/01/20 03:38:09;;;;;;;29.20;5.07;;;4.00;99.90;;;;;;5034585;28;20103;-74
2022/01/20 03:40:35;;;;;;;22.23;4.23;;;4.00;99.90;;;;;;5016297;28;20044;-74
2022/01/20 03:43:01;;;;;;;21.70;4.40;;;4.00;99.90;;;;;;5015052;28;20377;-74
2022/01/20 03:45:28;;;;;;;24.97;5.00;;;4.00;99.90;;;;;;5033958;28;20041;-73
2022/01/20 03:48:06;;;;;;;23.97;5.00;;;3.90;99.90;;;;;;5032042;28;20048;-73
2022/01/20 03:53:18;;;;;;;19.90;4.30;;;3.90;99.90;;;;;;5028413;28;20135;-72
2022/01/20 03:55:44;;;;;;;24.53;5.13;;;4.00;99.90;;;;;;5034331;28;20043;-74
2022/01/20 03:58:09;;;;;;;22.10;5.53;;;4.10;99.90;;;;;;5033130;28;20049;-73
2022/01/20 04:00:35;;;;;;;23.53;5.97;;;4.10;99.90;;;;;;5030947;28;20159;-73
2022/01/20 04:03:01;;;;;;;21.00;4.80;;;4.10;99.90;;;;;;4998613;28;20036;-74
2022/01/20 04:05:27;;;;;;;24.67;4.90;;;4.00;99.90;;;;;;4998339;28;20155;-73
2022/01/20 04:07:53;;;;;;;20.20;4.23;;;3.90;99.90;;;;;;5015439;28;20041;-74
2022/01/20 04:10:19;;;;;;;22.27;3.97;;;4.00;99.90;;;;;;4998549;28;20044;-73
2022/01/20 04:12:44;;;;;;;18.60;4.03;;;3.90;99.90;;;;;;5014898;28;20375;-73
2022/01/20 04:15:10;;;;;;;21.13;4.43;;;4.00;99.90;;;;;;5016529;28;20123;-74
2022/01/20 04:17:43;;;;;;;19.63;4.13;;;4.00;99.90;;;;;;5031394;28;20045;-74
2022/01/20 04:20:10;;;;;;;20.27;3.93;;;3.90;99.90;;;;;;4999204;28;20503;-73
2022/01/20 04:22:36;;;;;;;20.83;4.50;;;3.90;99.90;;;;;;5030633;28;20052;-74
2022/01/20 04:25:04;;;;;;;17.23;3.83;;;3.90;99.90;;;;;;5015273;28;20041;-74
2022/01/20 04:27:30;;;;;;;15.40;3.53;;;3.90;99.90;;;;;;5014761;28;20098;-74
2022/01/20 04:29:56;;;;;;;15.60;3.40;;;4.00;99.90;;;;;;4997591;28;20033;-74
2022/01/20 04:32:22;;;;;;;17.17;3.80;;;4.00;99.90;;;;;;5028653;28;20060;-74
2022/01/20 04:34:48;;;;;;;15.47;3.40;;;4.00;99.90;;;;;;5014657;28;20048;-74
2022/01/20 04:37:15;;;;;;;15.60;3.80;;;4.00;99.90;;;;;;5017185;28;20041;-74
2022/01/20 04:39:46;;;;;;;14.93;3.73;;;3.90;99.90;;;;;;5015004;28;20045;-74
2022/01/20 04:42:11;;;;;;;13.20;3.37;;;3.90;99.90;;;;;;5031027;28;20410;-74
2022/01/20 04:44:45;;;;;;;16.67;3.63;;;3.90;99.90;;;;;;5030974;28;20115;-74
2022/01/20 04:47:49;;;;;;;19.77;4.13;;;3.80;99.90;;;;;;5014864;28;20048;-73
2022/01/20 04:58:20;;;;;;;17.77;3.40;;;3.60;99.90;;;;;;5030663;28;21069;-74
2022/01/20 05:00:46;;;;;;;17.50;3.57;;;3.60;99.90;;;;;;5028338;28;20056;-73
2022/01/20 05:03:12;;;;;;;17.23;4.03;;;3.60;99.90;;;;;;5033697;28;20048;-74
2022/01/20 05:05:37;;;;;;;16.07;3.80;;;3.50;99.90;;;;;;5029245;28;20073;-74
2022/01/20 05:08:04;;;;;;;21.57;3.97;;;3.60;99.90;;;;;;5015633;28;20075;-74
2022/01/20 05:10:32;;;;;;;18.13;3.63;;;3.60;99.90;;;;;;5031620;28;20091;-74
2022/01/20 05:15:28;;;;;;;18.70;3.50;;;3.60;99.90;;;;;;5030972;28;20076;-74
2022/01/20 05:17:55;;;;;;;19.60;4.93;;;3.60;99.90;;;;;;5030249;28;20131;-75
2022/01/20 05:20:21;;;;;;;23.13;4.70;;;3.60;99.90;;;;;;5015500;28;20130;-74
2022/01/20 05:22:47;;;;;;;22.93;4.77;;;3.60;99.90;;;;;;5030171;28;20072;-73
2022/01/20 05:25:13;;;;;;;21.10;3.87;;;3.60;99.90;;;;;;5014288;28;20091;-73
2022/01/20 05:27:39;;;;;;;24.20;4.63;;;3.50;99.90;;;;;;5013446;28;20057;-74
2022/01/20 05:30:05;;;;;;;21.53;5.23;;;3.50;99.90;;;;;;5012134;28;20053;-74
2022/01/20 05:32:31;;;;;;;16.70;4.53;;;3.50;99.90;;;;;;5028568;28;20048;-73
2022/01/20 05:34:57;;;;;;;17.73;4.17;;;3.60;99.90;;;;;;5029875;28;20502;-74
2022/01/20 05:37:23;;;;;;;16.47;3.73;;;3.60;99.90;;;;;;5014364;28;20127;-74
2022/01/20 05:39:49;;;;;;;12.97;3.10;;;3.70;99.90;;;;;;5012694;28;20049;-74
2022/01/20 05:42:14;;;;;;;14.17;3.00;;;3.70;99.90;;;;;;5012556;28;20040;-76
2022/01/20 05:44:42;;;;;;;10.77;2.40;;;3.70;99.90;;;;;;5013228;28;20040;-74
2022/01/20 05:47:11;;;;;;;10.07;2.07;;;3.70;99.90;;;;;;5013810;28;20052;-74
2022/01/20 05:49:37;;;;;;;9.70;2.30;;;3.60;99.90;;;;;;4981099;28;20041;-75
2022/01/20 05:52:04;;;;;;;9.97;2.17;;;3.60;99.90;;;;;;5012568;28;20059;-73
2022/01/20 05:54:30;;;;;;;11.20;2.80;;;3.50;99.90;;;;;;5027879;28;20052;-73
2022/01/20 05:56:56;;;;;;;10.17;2.10;;;3.40;99.90;;;;;;5029569;28;20044;-82
2022/01/20 05:59:22;;;;;;;11.87;2.87;;;3.40;99.90;;;;;;5012738;28;20111;-82
2022/01/20 06:01:54;;;;;;;11.37;2.83;;;3.20;99.90;;;;;;5013260;28;20041;-82
2022/01/20 06:04:20;;;;;;;11.70;2.70;;;3.20;99.90;;;;;;5027637;28;20403;-82
2022/01/20 06:06:46;;;;;;;17.60;3.27;;;3.20;99.90;;;;;;5029373;28;20568;-81
2022/01/20 06:09:12;;;;;;;12.33;2.70;;;3.10;99.90;;;;;;5030187;28;20037;-81
2022/01/20 06:11:38;;;;;;;11.60;2.60;;;3.00;99.90;;;;;;5030153;28;20040;-81
2022/01/20 06:14:04;;;;;;;13.20;3.00;;;2.80;99.90;;;;;;5013716;28;20045;-81
2022/01/20 06:16:31;;;;;;;13.57;3.30;;;2.90;99.90;;;;;;5030103;28;20052;-82
2022/01/20 06:18:57;;;;;;;15.63;4.43;;;2.80;99.90;;;;;;5023434;28;20628;-81
2022/01/20 06:21:23;;;;;;;18.73;6.17;;;2.80;99.90;;;;;;5028019;28;20144;-75
2022/01/20 06:23:49;;;;;;;15.80;4.87;;;2.70;99.90;;;;;;5005303;28;20117;-74
2022/01/20 06:26:15;;;;;;;14.53;3.57;;;2.70;99.90;;;;;;5010368;28;20498;-73
2022/01/20 06:28:41;;;;;;;19.43;3.77;;;2.80;99.90;;;;;;4995325;28;20139;-75
2022/01/20 06:31:08;;;;;;;17.67;2.97;;;2.70;99.90;;;;;;5009485;28;20396;-74
2022/01/20 06:33:34;;;;;;;12.30;3.87;;;2.80;99.90;;;;;;5011110;28;20461;-74
2022/01/20 06:36:00;;;;;;;13.23;3.33;;;2.80;99.90;;;;;;5008869;28;20037;-74
2022/01/20 06:38:26;;;;;;;20.27;4.83;;;2.70;99.90;;;;;;4995992;28;20079;-74
2022/01/20 06:40:53;;;;;;;15.03;3.60;;;2.60;99.90;;;;;;5019864;28;20037;-74
2022/01/20 06:43:19;;;;;;;16.40;3.97;;;2.50;99.90;;;;;;5024203;28;20107;-74
2022/01/20 06:45:45;;;;;;;15.87;3.23;;;2.60;99.90;;;;;;5022172;28;20124;-74
2022/01/20 06:48:11;;;;;;;16.00;3.57;;;2.50;99.90;;;;;;4992179;28;20411;-74
2022/01/20 06:50:36;;;;;;;18.67;3.73;;;2.50;99.90;;;;;;5010027;28;20069;-75
2022/01/20 06:53:02;;;;;;;16.03;4.10;;;2.50;99.90;;;;;;5009575;28;20499;-75
2022/01/20 06:55:28;;;;;;;14.00;3.87;;;2.50;99.90;;;;;;4994011;28;20040;-74
2022/01/20 06:57:57;;;;;;;17.87;3.83;;;2.60;99.90;;;;;;4997561;28;20045;-75
2022/01/20 07:00:26;;;;;;;16.50;3.70;;;2.60;99.90;;;;;;5012746;28;20041;-75
2022/01/20 07:02:53;;;;;;;17.10;3.63;;;2.70;99.90;;;;;;5008997;28;20040;-75
2022/01/20 07:05:21;;;;;;;16.17;4.00;;;2.70;99.90;;;;;;5007865;28;20419;-74
2022/01/20 07:07:47;;;;;;;16.00;3.33;;;2.70;99.90;;;;;;5004301;28;20389;-75
2022/01/20 07:10:17;;;;;;;16.27;3.60;;;2.60;99.90;;;;;;5006773;28;20060;-75
2022/01/20 07:12:44;;;;;;;13.97;3.53;;;2.70;99.90;;;;;;5008719;28;20033;-74
2022/01/20 07:15:10;;;;;;;16.70;4.13;;;2.70;99.90;;;;;;5029089;28;20049;-75
2022/01/20 07:17:36;;;;;;;18.60;4.03;;;2.80;99.90;;;;;;5015344;28;20049;-75
2022/01/20 07:20:03;;;;;;;16.60;4.07;;;2.80;99.90;;;;;;5031577;28;20514;-73
2022/01/20 07:22:28;;;;;;;10.97;3.03;;;2.90;99.90;;;;;;5033813;28;20037;-73
2022/01/20 07:24:55;;;;;;;15.77;4.17;;;2.90;99.90;;;;;;5015176;28;20041;-74
2022/01/20 07:27:20;;;;;;;14.10;3.47;;;2.90;99.90;;;;;;5002027;28;20041;-74
2022/01/20 07:29:46;;;;;;;12.70;3.93;;;2.90;99.90;;;;;;5030122;28;20498;-74
2022/01/20 07:32:12;;;;;;;17.00;3.70;;;3.00;99.90;;;;;;5012218;28;20583;-74
2022/01/20 07:34:38;;;;;;;19.73;4.60;;;2.90;99.90;;;;;;5006179;28;20076;-74
2022/01/20 07:37:05;;;;;;;16.90;4.20;;;2.80;99.90;;;;;;5005613;28;20064;-74
2022/01/20 07:39:32;;;;;;;20.23;4.50;;;2.80;99.90;;;;;;5023501;28;20146;-74
2022/01/20 07:41:58;;;;;;;18.67;6.20;;;2.80;99.90;;;;;;5026796;28;20069;-74
2022/01/20 07:44:23;;;;;;;20.63;6.57;;;2.90;99.90;;;;;;5013548;28;20147;-74
2022/01/20 07:46:49;;;;;;;19.43;4.67;;;2.80;99.90;;;;;;5009292;28;20428;-74
2022/01/20 07:49:16;;;;;;;18.37;4.50;;;2.80;99.90;;;;;;5028528;28;20042;-74
2022/01/20 07:51:43;;;;;;;20.87;4.77;;;2.90;99.90;;;;;;5001964;28;20108;-74
2022/01/20 07:54:09;;;;;;;16.00;3.60;;;2.90;99.90;;;;;;5009246;28;20382;-74
2022/01/20 07:56:35;;;;;;;19.23;4.20;;;2.90;99.90;;;;;;5028347;28;20057;-74
2022/01/20 07:59:01;;;;;;;20.67;4.20;;;2.90;99.90;;;;;;5012052;28;20488;-74
2022/01/20 08:01:27;;;;;;;16.93;3.60;;;2.80;99.90;;;;;;5010371;28;20192;-74
2022/01/20 08:03:53;;;;;;;18.40;4.07;;;2.80;99.90;;;;;;5020136;28;20097;-74
2022/01/20 08:06:20;;;;;;;20.23;4.10;;;2.80;99.90;;;;;;5013102;28;20618;-74
2022/01/20 08:08:47;;;;;;;16.17;4.00;;;2.80;99.90;;;;;;4995563;28;20056;-74
2022/01/20 08:11:13;;;;;;;17.50;4.70;;;2.70;99.90;;;;;;5005100;28;20521;-74
2022/01/20 08:13:42;;;;;;;20.37;4.33;;;2.80;99.90;;;;;;4977261;28;20109;-74
2022/01/20 08:16:07;;;;;;;27.30;5.33;;;2.80;99.90;;;;;;5026552;28;20150;-73
2022/01/20 08:18:33;;;;;;;24.00;6.53;;;2.80;99.90;;;;;;4989165;28;20104;-73
2022/01/20 08:20:59;;;;;;;28.97;11.10;;;2.80;99.90;;;;;;4993243;28;20048;-74
2022/01/20 08:23:25;;;;;;;17.83;4.50;;;2.80;99.90;;;;;;5024614;28;20045;-73
2022/01/20 08:25:51;;;;;;;16.60;4.53;;;2.90;99.90;;;;;;5001390;28;20038;-74
2022/01/20 08:28:20;;;;;;;16.77;3.70;;;2.90;99.90;;;;;;4996079;28;20516;-73
2022/01/20 08:30:46;;;;;;;19.53;4.60;;;2.90;99.90;;;;;;5003203;28;20042;-74
2022/01/20 08:33:12;;;;;;;17.70;4.77;;;3.00;99.90;;;;;;5008081;28;20076;-74
2022/01/20 08:35:39;;;;;;;17.53;4.50;;;3.00;99.90;;;;;;5005286;28;20182;-74
2022/01/20 08:38:07;;;;;;;19.97;4.10;;;3.10;99.90;;;;;;5019548;28;20676;-73
2022/01/20 08:40:34;;;;;;;17.67;4.03;;;3.10;99.90;;;;;;4993277;28;20371;-74
2022/01/20 08:43:00;;;;;;;17.13;3.70;;;3.30;99.90;;;;;;5005231;28;20071;-73
2022/01/20 08:45:30;;;;;;;15.07;3.63;;;3.30;99.90;;;;;;5004526;28;20041;-73
2022/01/20 08:47:57;;;;;;;20.65;4.80;;;3.30;99.90;;;;;;5001528;28;20853;-73
2022/01/20 08:50:29;;;;;;;20.50;4.67;;;3.30;99.90;;;;;;5021231;28;20049;-75
2022/01/20 08:52:56;;;;;;;18.77;5.17;;;3.20;99.90;;;;;;5019300;28;20052;-74
2022/01/20 08:55:23;;;;;;;19.97;3.90;;;3.20;99.90;;;;;;5023300;28;20050;-74
2022/01/20 08:57:49;;;;;;;16.17;4.00;;;3.00;99.90;;;;;;5001093;28;20388;-72
2022/01/20 09:00:19;;;;;;;22.30;5.30;;;2.80;99.90;;;;;;4990590;28;20601;-73
2022/01/20 09:02:45;;;;;;;21.08;4.03;;;2.70;99.90;;;;;;5014840;28;20061;-73
2022/01/20 09:05:11;;;;;;;19.23;4.27;;;2.70;99.90;;;;;;4988643;28;20381;-73
2022/01/20 09:07:37;;;;;;;15.70;3.80;;;2.70;99.90;;;;;;5006691;28;20088;-73
2022/01/20 09:10:07;;;;;;;15.63;3.50;;;2.60;99.90;;;;;;4984191;28;20050;-74
2022/01/20 09:17:46;;;;;;;13.10;2.50;;;2.40;99.90;;;;;;5009456;28;20583;-73
2022/01/20 09:20:12;;;;;;;12.30;3.13;;;2.30;99.90;;;;;;4992241;28;20045;-73
2022/01/20 09:22:38;;;;;;;13.37;2.90;;;2.40;99.90;;;;;;4990733;28;20129;-73
2022/01/20 09:25:06;;;;;;;16.17;3.53;;;2.30;99.90;;;;;;4992385;28;20045;-73
2022/01/20 09:27:32;;;;;;;15.67;3.77;;;2.30;99.90;;;;;;5026863;28;20077;-74
2022/01/20 09:29:59;;;;;;;17.50;4.07;;;2.20;99.90;;;;;;5019040;28;20057;-74
2022/01/20 09:32:27;;;;;;;14.10;2.83;;;2.30;99.90;;;;;;5004623;28;20419;-73
2022/01/20 09:34:56;;;;;;;13.87;3.30;;;2.30;99.90;;;;;;4987880;28;20054;-74
2022/01/20 09:37:25;;;;;;;12.73;3.30;;;2.40;99.90;;;;;;4992879;28;20044;-74
2022/01/20 09:39:52;;;;;;;14.93;3.60;;;2.50;99.90;;;;;;5012399;28;20123;-74
2022/01/20 09:42:18;;;;;;;12.80;3.57;;;2.60;99.90;;;;;;5026245;28;20037;-73
2022/01/20 09:44:47;;;;;;;13.97;3.27;;;2.80;99.90;;;;;;5016122;28;20136;-74
2022/01/20 09:47:15;;;;;;;18.37;4.40;;;2.80;99.90;;;;;;5014876;28;20055;-73
2022/01/20 09:49:41;;;;;;;17.63;3.60;;;2.90;99.90;;;;;;4996578;28;20053;-73
2022/01/20 09:52:07;;;;;;;12.53;2.90;;;2.70;99.90;;;;;;5027385;28;20041;-73
2022/01/20 09:54:33;;;;;;;18.23;3.47;;;2.70;99.90;;;;;;5027622;28;20041;-73
2022/01/20 09:57:00;;;;;;;13.03;2.80;;;2.50;99.90;;;;;;5026651;28;20036;-74
2022/01/20 09:59:26;;;;;;;11.40;2.63;;;2.40;99.90;;;;;;4992542;28;20487;-73
2022/01/20 10:01:56;;;;;;;10.27;2.07;;;2.30;99.90;;;;;;5025899;28;20114;-74
2022/01/20 10:04:23;;;;;;;23.50;7.23;;;2.20;99.90;;;;;;5024320;28;20060;-74
2022/01/20 10:07:02;;;;;;;15.10;3.43;;;2.10;99.90;;;;;;5012615;28;20115;-74
2022/01/20 10:09:39;;;;;;;17.17;3.60;;;2.10;99.90;;;;;;5030402;28;20446;-74
2022/01/20 10:12:06;;;;;;;19.70;7.03;;;2.10;99.90;;;;;;5003893;28;20377;-74
2022/01/20 10:14:59;;;;;;;14.83;3.47;;;2.20;99.90;;;;;;5029169;28;20495;-74
2022/01/20 10:17:30;;;;;;;16.57;4.23;;;2.40;99.90;;;;;;5022517;28;20067;-74
2022/01/20 10:20:06;;;;;;;15.00;4.27;;;2.50;99.90;;;;;;5016020;28;20127;-74
2022/01/20 10:22:35;;;;;;;17.70;3.87;;;2.70;99.90;;;;;;5014081;28;20127;-75
2022/01/20 10:25:05;;;;;;;16.93;3.37;;;2.80;99.90;;;;;;5010783;28;20065;-73
2022/01/20 10:27:34;;;;;;;16.55;2.95;;;2.90;99.90;;;;;;5013819;28;20091;-74
2022/01/20 10:30:05;;;;;;;15.30;3.00;;;2.80;99.90;;;;;;5032010;28;20041;-74
2022/01/20 10:32:49;;;;;;;16.20;3.83;;;2.70;99.90;;;;;;5006476;28;20060;-74
2022/01/20 10:35:18;;;;;;;17.33;3.43;;;2.60;99.90;;;;;;5041851;28;20677;-74
2022/01/20 10:38:10;;;;;;;14.87;3.63;;;2.50;99.90;;;;;;5023865;28;20140;-73
2022/01/20 10:40:56;;;;;;;15.27;3.53;;;2.50;99.90;;;;;;5011401;28;20544;-72
2022/01/20 10:43:27;;;;;;;19.03;3.67;;;2.40;99.90;;;;;;5005202;28;20052;-73
2022/01/20 10:46:12;;;;;;;15.77;3.20;;;2.50;99.90;;;;;;5031131;28;20103;-73
2022/01/20 10:48:39;;;;;;;16.67;3.23;;;2.60;99.90;;;;;;5004171;28;20068;-74
2022/01/20 10:51:24;;;;;;;20.93;4.07;;;2.70;99.90;;;;;;5009676;28;21125;-74
2022/01/20 10:54:19;;;;;;;13.73;3.17;;;2.80;99.90;;;;;;5012245;28;20045;-74
2022/01/20 10:56:53;;;;;;;13.43;3.73;;;2.90;99.90;;;;;;4997058;28;20066;-74
2022/01/20 10:59:21;;;;;;;14.97;3.33;;;2.90;99.90;;;;;;5019464;28;20526;-73
2022/01/20 11:02:06;;;;;;;14.70;3.77;;;3.00;99.90;;;;;;5032524;28;20052;-73
2022/01/20 11:04:32;;;;;;;18.63;3.70;;;3.10;99.90;;;;;;4994768;28;20042;-74
2022/01/20 11:07:02;;;;;;;14.40;4.87;;;3.10;99.90;;;;;;4994661;28;20037;-74
2022/01/20 11:09:30;;;;;;;14.20;3.30;;;3.20;99.90;;;;;;5001786;28;20037;-74
2022/01/20 11:11:57;;;;;;;17.73;3.63;;;3.30;99.90;;;;;;5019831;28;20045;-74
2022/01/20 11:14:23;;;;;;;12.77;3.50;;;3.30;99.90;;;;;;4976480;28;20046;-74
2022/01/20 11:16:49;;;;;;;12.37;3.60;;;3.50;99.90;;;;;;4977587;28;20100;-74
2022/01/20 11:19:20;;;;;;;17.77;3.63;;;3.60;99.90;;;;;;4982082;28;20471;-75
2022/01/20 11:21:46;;;;;;;14.50;3.90;;;3.60;99.90;;;;;;5028152;28;20053;-74
2022/01/20 11:24:23;;;;;;;20.53;4.33;;;3.70;99.90;;;;;;5028701;28;20038;-74
2022/01/20 11:26:57;;;;;;;19.03;3.83;;;3.80;99.90;;;;;;4994529;28;20132;-73
2022/01/20 11:29:27;;;;;;;17.80;3.97;;;3.90;99.90;;;;;;5024520;28;20041;-72
2022/01/20 11:31:53;;;;;;;17.20;3.60;;;3.90;99.90;;;;;;5006630;28;20045;-74
2022/01/20 11:34:21;;;;;;;13.57;3.33;;;4.00;99.90;;;;;;5015122;28;20052;-73
2022/01/20 11:36:48;;;;;;;15.33;3.30;;;4.00;99.90;;;;;;5032715;28;20067;-73
2022/01/20 11:39:17;;;;;;;13.93;2.70;;;4.00;99.90;;;;;;5011854;28;20041;-73
2022/01/20 11:41:47;;;;;;;15.25;3.58;;;4.00;99.90;;;;;;5029932;28;20060;-73
2022/01/20 11:44:26;;;;;;;11.52;3.65;;;4.00;99.90;;;;;;5024646;28;20048;-73
2022/01/20 11:46:53;;;;;;;18.13;5.93;;;4.00;99.90;;;;;;5032271;28;20057;-73
2022/01/20 11:49:21;;;;;;;13.97;3.53;;;4.10;99.90;;;;;;5031775;28;20491;-74
2022/01/20 11:51:59;;;;;;;19.23;3.20;;;4.20;99.90;;;;;;5033363;28;20130;-74
2022/01/20 11:54:40;;;;;;;14.07;4.00;;;4.40;99.90;;;;;;5009684;28;20091;-75
2022/01/20 11:57:11;;;;;;;16.37;3.47;;;4.50;99.90;;;;;;5020325;28;20120;-74
2022/01/20 11:59:38;;;;;;;16.20;3.40;;;4.50;99.90;;;;;;5004726;28;20084;-75
2022/01/20 12:02:04;;;;;;;19.57;4.80;;;4.50;99.90;;;;;;5028425;28;20095;-76
2022/01/20 12:04:36;;;;;;;15.23;3.40;;;4.40;99.90;;;;;;5007189;28;20041;-74
2022/01/20 12:07:03;;;;;;;16.87;3.67;;;4.40;99.90;;;;;;5027040;28;21402;-74
2022/01/20 12:09:29;;;;;;;17.93;3.90;;;4.20;99.90;;;;;;5011668;28;20044;-74
2022/01/20 12:11:58;;;;;;;17.37;3.63;;;4.10;99.90;;;;;;5013096;28;20046;-74
2022/01/20 12:14:35;;;;;;;20.03;4.03;;;4.00;99.90;;;;;;5011011;28;20128;-74
2022/01/20 12:17:14;;;;;;;20.10;4.20;;;3.90;99.90;;;;;;5013169;28;20052;-74
2022/01/20 12:19:42;;;;;;;14.70;3.23;;;3.90;99.90;;;;;;5005792;28;20045;-74
2022/01/20 12:22:08;;;;;;;14.53;2.97;;;3.90;99.90;;;;;;5005858;28;20091;-74
2022/01/20 12:24:35;;;;;;;16.60;3.03;;;4.00;99.90;;;;;;5006457;28;20048;-74
2022/01/20 12:27:13;;;;;;;14.60;3.50;;;4.00;99.90;;;;;;5026641;28;20052;-74
2022/01/20 12:29:39;;;;;;;16.43;4.07;;;4.10;99.90;;;;;;5012262;28;20491;-74
2022/01/20 12:32:13;;;;;;;14.30;3.57;;;4.10;99.90;;;;;;4978982;28;20045;-75
2022/01/20 12:34:40;;;;;;;13.20;3.43;;;4.10;99.90;;;;;;5022952;28;20069;-74
2022/01/20 12:37:07;;;;;;;14.30;3.60;;;4.10;99.90;;;;;;5025532;28;20480;-74
2022/01/20 12:39:35;;;;;;;17.67;3.63;;;4.20;99.90;;;;;;5004772;28;20455;-74
2022/01/20 12:42:11;;;;;;;17.63;3.97;;;4.20;99.90;;;;;;5027519;28;20418;-74
2022/01/20 12:44:40;;;;;;;15.20;3.77;;;4.30;99.90;;;;;;5011725;28;20389;-74
2022/01/20 12:47:09;;;;;;;18.67;4.60;;;4.40;99.90;;;;;;5030633;28;20407;-74
2022/01/20 12:49:34;;;;;;;17.33;3.73;;;4.50;99.90;;;;;;5007928;28;20038;-74
2022/01/20 12:52:05;;;;;;;16.33;3.53;;;4.50;99.90;;;;;;5010358;28;20394;-74
2022/01/20 12:54:33;;;;;;;21.07;4.30;;;4.60;99.90;;;;;;4994124;28;20056;-74
2022/01/20 12:57:00;;;;;;;16.27;4.30;;;4.60;99.90;;;;;;5007985;28;20041;-74
2022/01/20 12:59:29;;;;;;;20.27;3.77;;;4.80;99.90;;;;;;5025219;28;20041;-74
2022/01/20 13:02:00;;;;;;;14.27;2.90;;;5.00;99.90;;;;;;5004486;28;20436;-73
2022/01/20 13:04:27;;;;;;;14.37;3.60;;;5.20;99.90;;;;;;5014982;28;20176;-74
2022/01/20 13:06:59;;;;;;;15.07;3.00;;;5.30;99.90;;;;;;5006045;28;20523;-75
2022/01/20 13:09:43;;;;;;;15.27;3.10;;;5.40;99.90;;;;;;5010790;28;20076;-75
2022/01/20 13:12:13;;;;;;;13.80;2.80;;;5.40;99.90;;;;;;5016502;28;20045;-75
2022/01/20 13:14:48;;;;;;;14.20;4.03;;;5.30;99.90;;;;;;5018139;28;20085;-76
2022/01/20 13:17:30;;;;;;;10.27;2.60;;;5.20;99.90;;;;;;5015127;28;20076;-73
2022/01/20 13:19:58;;;;;;;13.03;2.67;;;4.70;99.90;;;;;;5008062;28;20128;-73
2022/01/20 13:22:30;;;;;;;15.47;3.60;;;4.30;99.90;;;;;;5014168;28;20053;-75
2022/01/20 13:25:12;;;;;;;12.93;2.80;;;4.00;99.90;;;;;;5020499;28;20064;-75
2022/01/20 13:27:59;;;;;;;14.53;3.50;;;4.00;99.90;;;;;;5024633;28;20050;-73
2022/01/20 13:30:36;;;;;;;17.03;3.57;;;3.90;99.90;;;;;;5013366;28;20037;-74
2022/01/20 13:33:09;;;;;;;16.27;4.00;;;3.90;99.90;;;;;;5007961;28;20248;-74
2022/01/20 13:35:43;;;;;;;14.67;4.23;;;4.00;99.90;;;;;;5012104;28;20543;-73
2022/01/20 13:38:09;;;;;;;15.67;3.57;;;4.10;99.90;;;;;;5026895;28;20147;-75
2022/01/20 13:40:36;;;;;;;18.33;5.27;;;4.10;99.90;;;;;;5001021;28;20496;-73
2022/01/20 13:45:53;;;;;;;16.08;3.13;;;4.20;99.90;;;;;;4993231;28;20138;-74
2022/01/20 13:48:26;;;;;;;14.13;3.07;;;4.30;99.90;;;;;;5005785;28;20522;-73
2022/01/20 13:50:57;;;;;;;12.00;2.67;;;4.30;99.90;;;;;;5020243;28;20124;-74
2022/01/20 13:53:28;;;;;;;14.13;3.07;;;4.30;99.90;;;;;;5006182;28;20083;-73
2022/01/20 13:55:58;;;;;;;18.37;4.40;;;4.40;99.90;;;;;;5006127;28;20590;-74
2022/01/20 13:58:30;;;;;;;12.93;3.05;;;4.40;99.90;;;;;;5005266;28;20049;-74
2022/01/20 14:00:58;;;;;;;16.13;3.50;;;4.50;99.90;;;;;;5029404;28;20056;-74
2022/01/20 14:03:27;;;;;;;13.80;4.03;;;4.50;99.90;;;;;;5008704;28;20040;-77
2022/01/20 14:05:55;;;;;;;15.63;3.13;;;4.40;99.90;;;;;;5007488;28;20112;-73
2022/01/20 14:08:22;;;;;;;14.37;3.27;;;4.40;99.90;;;;;;5003312;28;20050;-74